Time;durP1;ratioP1;P1;durP2;ratioP2;P2;SDS_P1;SDS_P2;PMS_P1;PMS_P2;Temp;Humidity;BMP_temperature;BMP_pressure;BME280_temperature;BME280_humidity;BME280_pressure;Samples;Min_cycle;Max_cycle;Signal;HPM_P1;HPM_P2
2023/03/08 00:02:28;;;;;;;;;;;;;;;;;;10455885;28;19916;-73
2023/03/08 00:07:49;;;;;;;;;;;;;;;;;;10461041;28;19941;-73
2023/03/08 00:13:10;;;;;;;;;;;;;;;;;;10470960;28;20030;-73
2023/03/08 00:18:30;;;;;;;;;;;;;;;;;;10471606;28;19921;-73
2023/03/08 00:23:52;;;;;;;;;;;;;;;;;;10465699;28;19983;-73
2023/03/08 00:29:12;;;;;;;;;;;;;;;;;;10478899;28;19923;-73
2023/03/08 00:34:33;;;;;;;;;;;;;;;;;;10463419;28;20374;-73
2023/03/08 00:39:54;;;;;;;;;;;;;;;;;;10459242;28;19916;-73
2023/03/08 00:45:14;;;;;;;;;;;;;;;;;;10456394;28;19920;-73
2023/03/08 00:50:35;;;;;;;;;;;;;;;;;;10463711;28;20280;-73
2023/03/08 00:55:56;;;;;;;;;;;;;;;;;;10464033;28;19923;-73
2023/03/08 01:01:16;;;;;;;;;;;;;;;;;;10462208;28;19925;-73
2023/03/08 01:06:37;;;;;;;;;;;;;;;;;;10455499;28;20295;-73
2023/03/08 01:11:58;;;;;;;;;;;;;;;;;;10457308;28;19920;-73
2023/03/08 01:17:19;;;;;;;;;;;;;;;;;;10462659;28;20319;-73
2023/03/08 01:22:39;;;;;;;;;;;;;;;;;;10458538;28;19924;-73
2023/03/08 01:28:00;;;;;;;;;;;;;;;;;;10465421;28;20280;-73
2023/03/08 01:33:21;;;;;;;;;;;;;;;;;;10456799;28;19919;-73
2023/03/08 01:38:42;;;;;;;;;;;;;;;;;;10462914;28;19933;-73
2023/03/08 01:44:02;;;;;;;;;;;;;;;;;;10457231;28;19917;-73
2023/03/08 01:49:23;;;;;;;;;;;;;;;;;;10454941;28;20288;-73
2023/03/08 01:54:46;;;;;;;;;;;;;;;;;;10454050;28;19917;-73
2023/03/08 02:00:08;;;;;;;;;;;;;;;;;;10451860;28;20315;-76
2023/03/08 02:05:29;;;;;;;;;;;;;;;;;;10463935;28;19919;-73
2023/03/08 02:10:50;;;;;;;;;;;;;;;;;;10443384;28;19920;-73
2023/03/08 02:16:11;;;;;;;;;;;;;;;;;;10452116;28;19913;-73
2023/03/08 02:21:31;;;;;;;;;;;;;;;;;;10450151;28;19924;-73
2023/03/08 02:26:52;;;;;;;;;;;;;;;;;;10459648;28;19912;-73
2023/03/08 02:32:14;;;;;;;;;;;;;;;;;;10446418;28;19924;-73
2023/03/08 02:37:35;;;;;;;;;;;;;;;;;;10458655;28;19920;-73
2023/03/08 02:42:55;;;;;;;;;;;;;;;;;;10462241;28;19920;-73
2023/03/08 02:48:16;;;;;;;;;;;;;;;;;;10459483;28;19917;-73
2023/03/08 02:53:37;;;;;;;;;;;;;;;;;;10460143;28;19928;-73
2023/03/08 02:58:57;;;;;;;;;;;;;;;;;;10462730;28;19917;-72
2023/03/08 03:04:18;;;;;;;;;;;;;;;;;;10454559;28;20318;-73
2023/03/08 03:09:39;;;;;;;;;;;;;;;;;;10462747;28;19919;-73
2023/03/08 03:15:00;;;;;;;;;;;;;;;;;;10470769;28;19920;-73
2023/03/08 03:20:20;;;;;;;;;;;;;;;;;;10456596;28;19920;-73
2023/03/08 03:25:41;;;;;;;;;;;;;;;;;;10456411;28;19909;-73
2023/03/08 03:31:02;;;;;;;;;;;;;;;;;;10459316;28;19916;-73
2023/03/08 03:36:23;;;;;;;;;;;;;;;;;;10469751;28;19923;-73
2023/03/08 03:41:43;;;;;;;;;;;;;;;;;;10460460;28;19920;-73
2023/03/08 03:47:04;;;;;;;;;;;;;;;;;;10470772;28;19919;-77
2023/03/08 03:52:25;;;;;;;;;;;;;;;;;;10472543;28;19925;-77
2023/03/08 03:57:46;;;;;;;;;;;;;;;;;;10471413;28;19923;-77
2023/03/08 04:03:06;;;;;;;;;;;;;;;;;;10465042;28;19927;-77
2023/03/08 04:08:27;;;;;;;;;;;;;;;;;;10470457;28;19921;-77
2023/03/08 04:13:48;;;;;;;;;;;;;;;;;;10462793;28;20310;-78
2023/03/08 04:19:08;;;;;;;;;;;;;;;;;;10467329;28;19921;-77
2023/03/08 04:24:29;;;;;;;;;;;;;;;;;;10468856;28;19912;-77
2023/03/08 04:29:50;;;;;;;;;;;;;;;;;;10469210;28;20661;-77
2023/03/08 04:35:10;;;;;;;;;;;;;;;;;;10471125;28;19913;-77
2023/03/08 04:40:31;;;;;;;;;;;;;;;;;;10461911;28;19963;-77
2023/03/08 04:45:52;;;;;;;;;;;;;;;;;;10461470;28;20387;-77
2023/03/08 04:51:12;;;;;;;;;;;;;;;;;;10465114;28;19928;-77
2023/03/08 04:56:33;;;;;;;;;;;;;;;;;;10458973;28;19912;-77
2023/03/08 05:01:54;;;;;;;;;;;;;;;;;;10453840;28;19917;-77
2023/03/08 05:07:14;;;;;;;;;;;;;;;;;;10464323;28;19923;-78
2023/03/08 05:12:35;;;;;;;;;;;;;;;;;;10467682;28;20403;-76
2023/03/08 05:17:56;;;;;;;;;;;;;;;;;;10448358;28;19923;-75
2023/03/08 05:23:16;;;;;;;;;;;;;;;;;;10452311;28;21262;-76
2023/03/08 05:28:37;;;;;;;;;;;;;;;;;;10460001;28;19920;-76
2023/03/08 05:33:58;;;;;;;;;;;;;;;;;;10473410;28;19921;-76
2023/03/08 05:39:18;;;;;;;;;;;;;;;;;;10461829;28;19927;-76
2023/03/08 05:44:39;;;;;;;;;;;;;;;;;;10444744;28;20284;-76
2023/03/08 05:50:00;;;;;;;;;;;;;;;;;;10447632;28;19932;-75
2023/03/08 05:55:21;;;;;;;;;;;;;;;;;;10455121;28;19919;-76
2023/03/08 06:00:41;;;;;;;;;;;;;;;;;;10445521;28;19972;-76
2023/03/08 06:06:02;;;;;;;;;;;;;;;;;;10463419;28;19920;-76
2023/03/08 06:11:23;;;;;;;;;;;;;;;;;;10462074;28;19927;-76
2023/03/08 06:16:47;;;;;;;;;;;;;;;;;;10456768;28;19917;-76
2023/03/08 06:22:07;;;;;;;;;;;;;;;;;;10467024;28;19924;-76
2023/03/08 06:27:28;;;;;;;;;;;;;;;;;;10450490;28;19913;-76
2023/03/08 06:32:49;;;;;;;;;;;;;;;;;;10452814;28;19913;-76
2023/03/08 06:38:10;;;;;;;;;;;;;;;;;;10451979;28;19920;-76
2023/03/08 06:43:30;;;;;;;;;;;;;;;;;;10458225;28;20368;-76
2023/03/08 06:48:52;;;;;;;;;;;;;;;;;;10466850;28;19963;-76
2023/03/08 06:54:16;;;;;;;;;;;;;;;;;;10479898;28;20362;-76
2023/03/08 06:59:36;;;;;;;;;;;;;;;;;;10478019;28;19921;-77
2023/03/08 07:04:57;;;;;;;;;;;;;;;;;;10460914;28;19920;-76
2023/03/08 07:10:21;;;;;;;;;;;;;;;;;;10470546;28;19943;-78
2023/03/08 07:15:41;;;;;;;;;;;;;;;;;;10472583;28;19912;-78
2023/03/08 07:21:02;;;;;;;;;;;;;;;;;;10466823;28;19921;-78
2023/03/08 07:26:23;;;;;;;;;;;;;;;;;;10471357;28;19917;-78
2023/03/08 07:31:43;;;;;;;;;;;;;;;;;;10460913;28;19935;-78
2023/03/08 07:37:04;;;;;;;;;;;;;;;;;;10457242;28;19913;-78
2023/03/08 07:42:26;;;;;;;;;;;;;;;;;;10458010;28;19985;-77
2023/03/08 07:47:46;;;;;;;;;;;;;;;;;;10461024;28;19917;-77
2023/03/08 07:53:07;;;;;;;;;;;;;;;;;;10459611;28;19924;-81
2023/03/08 07:58:28;;;;;;;;;;;;;;;;;;10454805;28;20355;-76
2023/03/08 08:03:49;;;;;;;;;;;;;;;;;;10450644;28;20472;-76
2023/03/08 08:09:10;;;;;;;;;;;;;;;;;;10455287;28;19919;-76
2023/03/08 08:14:31;;;;;;;;;;;;;;;;;;10443935;28;19909;-76
2023/03/08 08:19:52;;;;;;;;;;;;;;;;;;10467381;28;19931;-75
2023/03/08 08:25:12;;;;;;;;;;;;;;;;;;10467604;28;19920;-75
2023/03/08 08:30:33;;;;;;;;;;;;;;;;;;10452224;28;19917;-74
2023/03/08 08:35:54;;;;;;;;;;;;;;;;;;10456624;28;19913;-73
2023/03/08 08:41:14;;;;;;;;;;;;;;;;;;10453506;28;20364;-74
2023/03/08 08:46:35;;;;;;;;;;;;;;;;;;10453693;28;19917;-74
2023/03/08 08:51:56;;;;;;;;;;;;;;;;;;10446779;28;19924;-74
2023/03/08 08:57:16;;;;;;;;;;;;;;;;;;10430578;28;19913;-74
2023/03/08 09:02:37;;;;;;;;;;;;;;;;;;10449104;28;19921;-74
2023/03/08 09:07:58;;;;;;;;;;;;;;;;;;10451930;28;19917;-74
2023/03/08 09:13:19;;;;;;;;;;;;;;;;;;10435353;28;19917;-75
2023/03/08 09:18:39;;;;;;;;;;;;;;;;;;10422486;28;19974;-79
2023/03/08 09:24:00;;;;;;;;;;;;;;;;;;10431411;28;19913;-74
2023/03/08 09:29:20;;;;;;;;;;;;;;;;;;10446594;28;19917;-78
2023/03/08 09:34:41;;;;;;;;;;;;;;;;;;10437338;28;19917;-75
2023/03/08 09:40:08;;;;;;;;;;;;;;;;;;10411584;28;19920;-76
2023/03/08 09:45:28;;;;;;;;;;;;;;;;;;10424172;28;19964;-76
2023/03/08 09:50:49;;;;;;;;;;;;;;;;;;10471570;28;19994;-76
2023/03/08 09:56:10;;;;;;;;;;;;;;;;;;10452475;28;19935;-76
2023/03/08 10:01:31;;;;;;;;;;;;;;;;;;10446482;28;19913;-76
2023/03/08 10:06:51;;;;;;;;;;;;;;;;;;10450881;28;19916;-76
2023/03/08 10:12:14;;;;;;;;;;;;;;;;;;10453640;28;20120;-75
2023/03/08 10:17:34;;;;;;;;;;;;;;;;;;10470955;28;19920;-75
2023/03/08 10:22:55;;;;;;;;;;;;;;;;;;10451827;28;19916;-74
2023/03/08 10:28:16;;;;;;;;;;;;;;;;;;10436087;28;19921;-75
2023/03/08 10:33:37;;;;;;;;;;;;;;;;;;10447694;28;19919;-74
2023/03/08 10:38:57;;;;;;;;;;;;;;;;;;10448678;28;20264;-73
2023/03/08 10:44:18;;;;;;;;;;;;;;;;;;10446950;28;19975;-74
2023/03/08 10:49:39;;;;;;;;;;;;;;;;;;10449945;28;19929;-74
2023/03/08 10:55:00;;;;;;;;;;;;;;;;;;10447032;28;19917;-75
2023/03/08 11:00:20;;;;;;;;;;;;;;;;;;10445231;28;19917;-75
2023/03/08 11:05:41;;;;;;;;;;;;;;;;;;10445654;28;19913;-74
2023/03/08 11:11:02;;;;;;;;;;;;;;;;;;10458895;28;19913;-75
2023/03/08 11:16:22;;;;;;;;;;;;;;;;;;10407847;28;19917;-74
2023/03/08 11:21:43;;;;;;;;;;;;;;;;;;10446840;28;19928;-73
2023/03/08 11:27:04;;;;;;;;;;;;;;;;;;10447878;28;19913;-74
2023/03/08 11:32:28;;;;;;;;;;;;;;;;;;10451553;28;19909;-77
2023/03/08 11:37:48;;;;;;;;;;;;;;;;;;10452740;28;19917;-78
2023/03/08 11:43:09;;;;;;;;;;;;;;;;;;10457150;28;19916;-78
2023/03/08 11:48:30;;;;;;;;;;;;;;;;;;10448479;28;19913;-78
2023/03/08 11:53:50;;;;;;;;;;;;;;;;;;10477931;28;19924;-78
2023/03/08 11:59:11;;;;;;;;;;;;;;;;;;10466312;28;20399;-78
2023/03/08 12:04:32;;;;;;;;;;;;;;;;;;10449196;28;19921;-78
2023/03/08 12:09:53;;;;;;;;;;;;;;;;;;10449485;28;19917;-78
2023/03/08 12:15:14;;;;;;;;;;;;;;;;;;10453007;28;20283;-77
2023/03/08 12:20:35;;;;;;;;;;;;;;;;;;10443312;28;19920;-77
2023/03/08 12:25:55;;;;;;;;;;;;;;;;;;10448553;28;19924;-77
2023/03/08 12:31:18;;;;;;;;;;;;;;;;;;10454042;28;19922;-77
2023/03/08 12:36:39;;;;;;;;;;;;;;;;;;10462133;28;19931;-77
2023/03/08 12:42:00;;;;;;;;;;;;;;;;;;10463165;28;19920;-77
2023/03/08 12:47:21;;;;;;;;;;;;;;;;;;10468318;28;19923;-80
2023/03/08 12:52:41;;;;;;;;;;;;;;;;;;10461092;28;19936;-79
2023/03/08 12:58:02;;;;;;;;;;;;;;;;;;10464828;28;19927;-79
2023/03/08 13:03:23;;;;;;;;;;;;;;;;;;10455610;28;19924;-79
2023/03/08 13:08:44;;;;;;;;;;;;;;;;;;10464228;28;19917;-80
2023/03/08 13:14:05;;;;;;;;;;;;;;;;;;10452876;28;19921;-79
2023/03/08 13:19:26;;;;;;;;;;;;;;;;;;10444483;28;19920;-79
2023/03/08 13:24:46;;;;;;;;;;;;;;;;;;10459575;28;19909;-79
2023/03/08 13:30:07;;;;;;;;;;;;;;;;;;10466288;28;19913;-79
2023/03/08 13:35:28;;;;;;;;;;;;;;;;;;10475157;28;19913;-79
2023/03/08 13:40:49;;;;;;;;;;;;;;;;;;10451836;28;19980;-79
2023/03/08 13:46:09;;;;;;;;;;;;;;;;;;10455314;28;20367;-79
2023/03/08 13:51:30;;;;;;;;;;;;;;;;;;10468884;28;19932;-78
2023/03/08 13:56:51;;;;;;;;;;;;;;;;;;10464406;28;20278;-78
2023/03/08 14:02:12;;;;;;;;;;;;;;;;;;10437536;28;20382;-76
2023/03/08 14:07:33;;;;;;;;;;;;;;;;;;10451093;28;19927;-75
2023/03/08 14:12:54;;;;;;;;;;;;;;;;;;10451606;28;19920;-74
2023/03/08 14:18:14;;;;;;;;;;;;;;;;;;10445866;28;19925;-79
2023/03/08 14:23:35;;;;;;;;;;;;;;;;;;10444434;28;20394;-77
2023/03/08 14:28:56;;;;;;;;;;;;;;;;;;10459184;28;19917;-76
2023/03/08 14:34:16;;;;;;;;;;;;;;;;;;10464288;28;19917;-80
2023/03/08 14:39:37;;;;;;;;;;;;;;;;;;10466826;28;20344;-76
2023/03/08 14:44:58;;;;;;;;;;;;;;;;;;10453351;28;19913;-79
2023/03/08 14:50:18;;;;;;;;;;;;;;;;;;10465624;28;19928;-76
2023/03/08 14:55:39;;;;;;;;;;;;;;;;;;10452346;28;20387;-79
2023/03/08 15:01:00;;;;;;;;;;;;;;;;;;10458874;28;19928;-77
2023/03/08 15:06:20;;;;;;;;;;;;;;;;;;10450267;28;19924;-77
2023/03/08 15:11:41;;;;;;;;;;;;;;;;;;10463699;28;19919;-76
2023/03/08 15:17:02;;;;;;;;;;;;;;;;;;10465598;28;20406;-77
2023/03/08 15:22:23;;;;;;;;;;;;;;;;;;10463419;28;19921;-76
2023/03/08 15:27:43;;;;;;;;;;;;;;;;;;10469552;28;19913;-76
2023/03/08 15:33:04;;;;;;;;;;;;;;;;;;10468447;28;19924;-76
2023/03/08 15:38:25;;;;;;;;;;;;;;;;;;10458668;28;20877;-77
2023/03/08 15:43:45;;;;;;;;;;;;;;;;;;10449997;28;19917;-75
2023/03/08 15:49:07;;;;;;;;;;;;;;;;;;10449837;28;20300;-75
2023/03/08 15:54:29;;;;;;;;;;;;;;;;;;10452255;28;19929;-75
2023/03/08 15:59:50;;;;;;;;;;;;;;;;;;10452594;28;19924;-75
2023/03/08 16:05:11;;;;;;;;;;;;;;;;;;10450908;28;19924;-75
2023/03/08 16:10:32;;;;;;;;;;;;;;;;;;10456523;28;20283;-75
2023/03/08 16:15:52;;;;;;;;;;;;;;;;;;10450913;28;19917;-75
2023/03/08 16:21:13;;;;;;;;;;;;;;;;;;10450984;28;19921;-75
2023/03/08 16:26:34;;;;;;;;;;;;;;;;;;10452663;28;19920;-75
2023/03/08 16:31:56;;;;;;;;;;;;;;;;;;10452507;28;20275;-74
2023/03/08 16:37:16;;;;;;;;;;;;;;;;;;10439570;28;19916;-73
2023/03/08 16:42:37;;;;;;;;;;;;;;;;;;10474799;28;19920;-74
2023/03/08 16:47:58;;;;;;;;;;;;;;;;;;10452245;28;19920;-75
2023/03/08 16:53:18;;;;;;;;;;;;;;;;;;10432218;28;19924;-74
2023/03/08 16:58:39;;;;;;;;;;;;;;;;;;10452989;28;19925;-75
2023/03/08 17:04:00;;;;;;;;;;;;;;;;;;10449167;28;19928;-75
2023/03/08 17:09:21;;;;;;;;;;;;;;;;;;10455030;28;19912;-75
2023/03/08 17:14:42;;;;;;;;;;;;;;;;;;10444310;28;19920;-74
2023/03/08 17:20:03;;;;;;;;;;;;;;;;;;10441733;28;20003;-74
2023/03/08 17:25:25;;;;;;;;;;;;;;;;;;10451372;28;20256;-74
2023/03/08 17:30:45;;;;;;;;;;;;;;;;;;10450948;28;19913;-74
2023/03/08 17:36:06;;;;;;;;;;;;;;;;;;10452031;28;20398;-75
2023/03/08 17:41:27;;;;;;;;;;;;;;;;;;10459606;28;20325;-75
2023/03/08 17:46:47;;;;;;;;;;;;;;;;;;10473289;28;19920;-75
2023/03/08 17:52:08;;;;;;;;;;;;;;;;;;10451252;28;19979;-75
2023/03/08 17:57:29;;;;;;;;;;;;;;;;;;10451372;28;20136;-75
2023/03/08 18:02:50;;;;;;;;;;;;;;;;;;10447199;28;19925;-74
2023/03/08 18:08:10;;;;;;;;;;;;;;;;;;10465438;28;19963;-75
2023/03/08 18:13:31;;;;;;;;;;;;;;;;;;10457964;28;19921;-75
2023/03/08 18:18:52;;;;;;;;;;;;;;;;;;10455717;28;19920;-74
2023/03/08 18:24:12;;;;;;;;;;;;;;;;;;10460129;28;20497;-75
2023/03/08 18:29:33;;;;;;;;;;;;;;;;;;10455179;28;19947;-74
2023/03/08 18:34:54;;;;;;;;;;;;;;;;;;10464778;28;20305;-74
2023/03/08 18:40:14;;;;;;;;;;;;;;;;;;10466009;28;19920;-74
2023/03/08 18:45:35;;;;;;;;;;;;;;;;;;10460574;28;19924;-74
2023/03/08 18:50:56;;;;;;;;;;;;;;;;;;10455916;28;20645;-74
2023/03/08 18:56:16;;;;;;;;;;;;;;;;;;10454557;28;19912;-74
2023/03/08 19:01:37;;;;;;;;;;;;;;;;;;10449457;28;19921;-74
2023/03/08 19:06:58;;;;;;;;;;;;;;;;;;10442951;28;20101;-74
2023/03/08 19:12:19;;;;;;;;;;;;;;;;;;10445208;28;20367;-74
2023/03/08 19:17:39;;;;;;;;;;;;;;;;;;10482871;28;20249;-74
2023/03/08 19:23:00;;;;;;;;;;;;;;;;;;10481757;28;19927;-74
2023/03/08 19:28:21;;;;;;;;;;;;;;;;;;10484532;28;20394;-74
2023/03/08 19:33:48;;;;;;;;;;;;;;;;;;10466896;28;19912;-74
2023/03/08 19:39:08;;;;;;;;;;;;;;;;;;10470796;28;19920;-74
2023/03/08 19:44:29;;;;;;;;;;;;;;;;;;10467578;28;20410;-74
2023/03/08 19:49:50;;;;;;;;;;;;;;;;;;10445878;28;19928;-75
2023/03/08 19:55:10;;;;;;;;;;;;;;;;;;10455059;28;19936;-75
2023/03/08 20:00:31;;;;;;;;;;;;;;;;;;10452722;28;20252;-76
2023/03/08 20:05:53;;;;;;;;;;;;;;;;;;10451911;28;19921;-75
2023/03/08 20:11:14;;;;;;;;;;;;;;;;;;10465405;28;19921;-74
2023/03/08 20:16:35;;;;;;;;;;;;;;;;;;10457407;28;19948;-74
2023/03/08 20:21:55;;;;;;;;;;;;;;;;;;10450732;28;20261;-74
2023/03/08 20:27:16;;;;;;;;;;;;;;;;;;10458586;28;19917;-73
2023/03/08 20:32:37;;;;;;;;;;;;;;;;;;10465817;28;19913;-76
2023/03/08 20:37:58;;;;;;;;;;;;;;;;;;10459029;28;20287;-74
2023/03/08 20:43:18;;;;;;;;;;;;;;;;;;10443480;28;19928;-74
2023/03/08 20:48:39;;;;;;;;;;;;;;;;;;10446647;28;19931;-75
2023/03/08 20:54:00;;;;;;;;;;;;;;;;;;10445051;28;20021;-74
2023/03/08 20:59:22;;;;;;;;;;;;;;;;;;10450583;28;19923;-72
2023/03/08 21:04:43;;;;;;;;;;;;;;;;;;10451599;28;19927;-73
2023/03/08 21:10:04;;;;;;;;;;;;;;;;;;10450823;28;20372;-72
2023/03/08 21:15:24;;;;;;;;;;;;;;;;;;10445090;28;19923;-71
2023/03/08 21:20:45;;;;;;;;;;;;;;;;;;10421537;28;19975;-70
2023/03/08 21:26:06;;;;;;;;;;;;;;;;;;10416810;28;19928;-74
2023/03/08 21:31:27;;;;;;;;;;;;;;;;;;10411808;28;20374;-74
2023/03/08 21:36:47;;;;;;;;;;;;;;;;;;10438007;28;19974;-75
2023/03/08 21:42:08;;;;;;;;;;;;;;;;;;10427989;28;20295;-75
2023/03/08 21:47:29;;;;;;;;;;;;;;;;;;10440224;28;19931;-74
2023/03/08 21:52:49;;;;;;;;;;;;;;;;;;10431749;28;19939;-74
2023/03/08 21:58:10;;;;;;;;;;;;;;;;;;10442805;28;20552;-75
2023/03/08 22:03:32;;;;;;;;;;;;;;;;;;10428303;28;20394;-74
2023/03/08 22:08:52;;;;;;;;;;;;;;;;;;10433914;28;19916;-73
2023/03/08 22:14:13;;;;;;;;;;;;;;;;;;10434388;28;19917;-74
2023/03/08 22:19:34;;;;;;;;;;;;;;;;;;10426319;28;19921;-73
2023/03/08 22:24:55;;;;;;;;;;;;;;;;;;10430691;28;19924;-73
2023/03/08 22:30:15;;;;;;;;;;;;;;;;;;10454865;28;19936;-75
2023/03/08 22:35:36;;;;;;;;;;;;;;;;;;10441796;28;19920;-74
2023/03/08 22:40:57;;;;;;;;;;;;;;;;;;10446273;28;19978;-74
2023/03/08 22:46:17;;;;;;;;;;;;;;;;;;10439701;28;19928;-74
2023/03/08 22:51:38;;;;;;;;;;;;;;;;;;10445376;28;19921;-74
2023/03/08 22:56:59;;;;;;;;;;;;;;;;;;10448293;28;20341;-73
2023/03/08 23:02:19;;;;;;;;;;;;;;;;;;10435772;28;19974;-73
2023/03/08 23:07:40;;;;;;;;;;;;;;;;;;10446227;28;19927;-73
2023/03/08 23:13:01;;;;;;;;;;;;;;;;;;10446892;28;20334;-73
2023/03/08 23:18:22;;;;;;;;;;;;;;;;;;10440835;28;19916;-72
2023/03/08 23:23:42;;;;;;;;;;;;;;;;;;10449255;28;19921;-73
2023/03/08 23:29:03;;;;;;;;;;;;;;;;;;10451656;28;19924;-73
2023/03/08 23:34:24;;;;;;;;;;;;;;;;;;10473081;28;19916;-73
2023/03/08 23:39:44;;;;;;;;;;;;;;;;;;10454586;28;19917;-74
2023/03/08 23:45:05;;;;;;;;;;;;;;;;;;10455548;28;20375;-73
2023/03/08 23:50:26;;;;;;;;;;;;;;;;;;10435771;28;19928;-73
2023/03/08 23:55:46;;;;;;;;;;;;;;;;;;10458014;28;19909;-73
